Treberon — FGD8075 — position and weather

sailwx.info

Track history (hours):
 
Tides and Currents Weather Stations Pressure Air Temp Water Temp Dewpoint Dewpoint Depression Visibility Wind Speed Wind Dir Waves Ship Positions

Treberon

Last reported at 2017-Sep-20 00:30 UTC. Time now 2017-Sep-20 00:29 UTC.
Position N 48°23' W 004°30'.

MMSI: 226544246.

Date/timePositionNaut miles runAvg speedWind from/ knotsBaromVisibWave heightAir tempDewpointWater temp
2017-Sep-20 00:30N 48°23' W 004°30'0 0.0
2017-Sep-20 00:00N 48°23' W 004°30'0 0.0
2017-Sep-19 23:30N 48°23' W 004°30'0 0.0
2017-Sep-19 23:00N 48°23' W 004°30'0 0.0
2017-Sep-19 22:30N 48°23' W 004°30'0 0.0
2017-Sep-19 22:00N 48°23' W 004°30'0 0.0
2017-Sep-19 21:30N 48°23' W 004°30'0 0.0
2017-Sep-19 21:00N 48°23' W 004°30'0 0.0
2017-Sep-19 20:30N 48°23' W 004°30'0 0.0
2017-Sep-19 20:00N 48°23' W 004°30'0 0.0
2017-Sep-19 19:30N 48°23' W 004°30'0 0.0
2017-Sep-19 19:00N 48°23' W 004°30'0 0.0
2017-Sep-19 18:30N 48°23' W 004°30'0 0.0
2017-Sep-19 18:00N 48°23' W 004°30'0 0.0
2017-Sep-19 17:30N 48°23' W 004°30'0 0.0
2017-Sep-19 17:00N 48°23' W 004°30'0 0.0
2017-Sep-19 16:30N 48°23' W 004°30'0 0.0
2017-Sep-19 16:00N 48°23' W 004°30'0 0.0
2017-Sep-19 15:30N 48°23' W 004°30'0 0.0
2017-Sep-19 15:00N 48°23' W 004°30'510.3
2017-Sep-19 14:30N 48°18' W 004°31'4 7.1
2017-Sep-19 14:00N 48°21' W 004°29'2 3.5
2017-Sep-19 13:30N 48°23' W 004°30'0 0.0
2017-Sep-19 13:00N 48°23' W 004°30'0 0.0
2017-Sep-19 12:30N 48°23' W 004°30'0 0.0
2017-Sep-19 12:00N 48°23' W 004°30'2 3.3
2017-Sep-19 11:31N 48°21' W 004°29'4 7.1
2017-Sep-19 11:00N 48°18' W 004°28'1 2.6
2017-Sep-19 10:30N 48°19' W 004°28'4 7.9
2017-Sep-19 10:00N 48°23' W 004°30'0 0.0
2017-Sep-19 09:30N 48°23' W 004°30'0 0.0
2017-Sep-19 09:00N 48°23' W 004°30'0 0.0
2017-Sep-19 08:28N 48°23' W 004°30'0 0.0
2017-Sep-19 08:00N 48°23' W 004°30'0 0.0
2017-Sep-19 07:26N 48°23' W 004°30'0 0.0
2017-Sep-19 07:01N 48°23' W 004°30'0 0.0
2017-Sep-19 06:31N 48°23' W 004°30'3 6.7
2017-Sep-19 06:01N 48°20' W 004°29'0 0.3
2017-Sep-19 05:31N 48°19' W 004°29'3 6.9
2017-Sep-19 05:00N 48°23' W 004°30'0 0.0
2017-Sep-19 04:30N 48°23' W 004°30'0 0.0
2017-Sep-19 04:00N 48°23' W 004°30'0 0.0
2017-Sep-19 03:30N 48°23' W 004°30'0 0.0
2017-Sep-19 03:00N 48°23' W 004°30'0 0.0
2017-Sep-19 02:30N 48°23' W 004°30'0 0.0
2017-Sep-19 01:55N 48°23' W 004°30'0 0.0
2017-Sep-19 01:30N 48°23' W 004°30'0 0.0
2017-Sep-19 01:00N 48°23' W 004°30'0 0.0
2017-Sep-19 00:30N 48°23' W 004°30'0 0.0
2017-Sep-19 00:00N 48°23' W 004°30'0 0.0
2017-Sep-18 23:30N 48°23' W 004°30'0 0.0
2017-Sep-18 22:57N 48°23' W 004°30'0 0.0
2017-Sep-18 21:44N 48°23' W 004°30'0 0.0
2017-Sep-18 21:30N 48°23' W 004°30'0 0.0
2017-Sep-18 19:04N 48°23' W 004°30'0 0.0
2017-Sep-18 19:00N 48°23' W 004°30'0 0.0
2017-Sep-18 18:30N 48°23' W 004°30'0 0.0
2017-Sep-18 18:00N 48°23' W 004°30'0 0.0
2017-Sep-18 17:30N 48°23' W 004°30'0 0.0
2017-Sep-18 17:00N 48°23' W 004°30'0 0.0
2017-Sep-18 16:30N 48°23' W 004°30'0 0.0
2017-Sep-18 16:00N 48°23' W 004°30'0 0.0
2017-Sep-18 15:30N 48°23' W 004°30'0 0.0
2017-Sep-18 15:00N 48°23' W 004°30'510.3
2017-Sep-18 14:30N 48°18' W 004°31'4 7.4
2017-Sep-18 14:01N 48°21' W 004°29'2 3.2
2017-Sep-18 13:30N 48°23' W 004°30'0 0.0
2017-Sep-18 13:00N 48°23' W 004°30'0 0.0
2017-Sep-18 12:30N 48°23' W 004°30'0 0.0
2017-Sep-18 12:01N 48°23' W 004°30'2 4.9
2017-Sep-18 11:30N 48°20' W 004°30'3 5.7
2017-Sep-18 11:00N 48°18' W 004°28'2 3.5
2017-Sep-18 10:31N 48°20' W 004°28'3 6.9
2017-Sep-18 10:01N 48°23' W 004°30'0 0.0
2017-Sep-18 09:31N 48°23' W 004°30'0 0.0
2017-Sep-18 09:00N 48°23' W 004°30'0 0.0
2017-Sep-18 08:31N 48°23' W 004°30'0 0.0
2017-Sep-18 08:01N 48°23' W 004°30'0 0.0
2017-Sep-18 07:30N 48°23' W 004°30'0 0.0
2017-Sep-18 06:52N 48°23' W 004°30'0 0.0
2017-Sep-18 06:30N 48°23' W 004°30'4 7.9
2017-Sep-18 06:01N 48°19' W 004°29'1 2.2
2017-Sep-18 05:31N 48°20' W 004°29'3 5.7
2017-Sep-18 05:00N 48°23' W 004°30'0 0.0
2017-Sep-18 04:30N 48°23' W 004°30'0 0.0
2017-Sep-18 04:00N 48°23' W 004°30'0 0.0
2017-Sep-18 03:30N 48°23' W 004°30'0 0.0
2017-Sep-18 03:00N 48°23' W 004°30'0 0.0
2017-Sep-18 02:30N 48°23' W 004°30'0 0.0
2017-Sep-18 02:00N 48°23' W 004°30'0 0.0
2017-Sep-18 01:30N 48°23' W 004°30'0 0.0
2017-Sep-18 01:00N 48°23' W 004°30'0 0.0
2017-Sep-18 00:30N 48°23' W 004°30'0 0.0
2017-Sep-18 00:00N 48°23' W 004°30'0 0.0
2017-Sep-17 23:30N 48°23' W 004°30'0 0.0
2017-Sep-17 23:00N 48°23' W 004°30'0 0.0
2017-Sep-17 22:30N 48°23' W 004°30'0 0.0
2017-Sep-17 22:00N 48°23' W 004°30'0 0.0
2017-Sep-17 21:30N 48°23' W 004°30'0 0.0
2017-Sep-17 21:00N 48°23' W 004°30'0 0.0
2017-Sep-17 20:30N 48°23' W 004°30'0 0.0
2017-Sep-17 20:00N 48°23' W 004°30'0 0.0
2017-Sep-17 19:30N 48°23' W 004°30'0 0.0
2017-Sep-17 19:00N 48°23' W 004°30'0 0.0
2017-Sep-17 18:30N 48°23' W 004°30'0 0.0
2017-Sep-17 18:00N 48°23' W 004°30'0 0.0
2017-Sep-17 17:30N 48°23' W 004°30'0 0.0
2017-Sep-17 17:00N 48°23' W 004°30'0 0.0
2017-Sep-17 16:30N 48°23' W 004°30'0 0.0
2017-Sep-17 16:00N 48°23' W 004°30'0 0.0
2017-Sep-17 15:30N 48°23' W 004°30'0 0.0
2017-Sep-17 15:00N 48°23' W 004°30'0 0.0
2017-Sep-17 14:30N 48°23' W 004°30'0 0.0
2017-Sep-17 14:00N 48°23' W 004°30'0 0.0
2017-Sep-17 13:30N 48°23' W 004°30'0 0.0
2017-Sep-17 13:00N 48°23' W 004°30'0 0.0
2017-Sep-17 12:30N 48°23' W 004°30'0 0.0
2017-Sep-17 12:00N 48°23' W 004°30'0 0.0
2017-Sep-17 11:30N 48°23' W 004°30'0 0.0
2017-Sep-17 11:00N 48°23' W 004°30'0 0.0
2017-Sep-17 10:30N 48°23' W 004°30'0 0.0
2017-Sep-17 10:00N 48°23' W 004°30'0 0.0
2017-Sep-17 09:30N 48°23' W 004°30'0 0.0
2017-Sep-17 09:00N 48°23' W 004°30'0 0.0
2017-Sep-17 08:30N 48°23' W 004°30'0 0.0
2017-Sep-17 08:00N 48°23' W 004°30'0 0.0
2017-Sep-17 07:30N 48°23' W 004°30'0 0.0
2017-Sep-17 07:00N 48°23' W 004°30'0 0.0
2017-Sep-17 06:30N 48°23' W 004°30'0 0.0
2017-Sep-17 06:00N 48°23' W 004°30'0 0.0
2017-Sep-17 05:30N 48°23' W 004°30'0 0.0
2017-Sep-17 05:00N 48°23' W 004°30'0 0.0
2017-Sep-17 04:30N 48°23' W 004°30'0 0.0
2017-Sep-17 04:00N 48°23' W 004°30'0 0.0
2017-Sep-17 03:30N 48°23' W 004°30'0 0.0
2017-Sep-17 03:00N 48°23' W 004°30'0 0.0
2017-Sep-17 02:30N 48°23' W 004°30'0 0.0
2017-Sep-17 02:00N 48°23' W 004°30'0 0.0
2017-Sep-17 01:30N 48°23' W 004°30'0 0.0
2017-Sep-17 01:00N 48°23' W 004°30'0 0.0
2017-Sep-17 00:30N 48°23' W 004°30'0 0.0
2017-Sep-17 00:00N 48°23' W 004°30'0 0.0
2017-Sep-16 23:30N 48°23' W 004°30'0 0.0
2017-Sep-16 23:00N 48°23' W 004°30'0 0.0
2017-Sep-16 22:30N 48°23' W 004°30'0 0.0
2017-Sep-16 22:00N 48°23' W 004°30'0 0.0
2017-Sep-16 21:30N 48°23' W 004°30'0 0.0
2017-Sep-16 21:00N 48°23' W 004°30'0 0.0
2017-Sep-16 20:30N 48°23' W 004°30'0 0.0
2017-Sep-16 20:00N 48°23' W 004°30'0 0.0
2017-Sep-16 19:30N 48°23' W 004°30'0 0.0
2017-Sep-16 19:00N 48°23' W 004°30'0 0.0
2017-Sep-16 18:30N 48°23' W 004°30'0 0.0
2017-Sep-16 18:00N 48°23' W 004°30'0 0.0
2017-Sep-16 17:30N 48°23' W 004°30'0 0.0
2017-Sep-16 17:00N 48°23' W 004°30'0 0.0
2017-Sep-16 16:30N 48°23' W 004°30'0 0.0
2017-Sep-16 16:00N 48°23' W 004°30'0 0.0
2017-Sep-16 15:30N 48°23' W 004°30'0 0.0
2017-Sep-16 15:00N 48°23' W 004°30'0 0.0
2017-Sep-16 14:30N 48°23' W 004°30'0 0.0
2017-Sep-16 14:00N 48°23' W 004°30'0 0.0
2017-Sep-16 13:30N 48°23' W 004°30'0 0.0
2017-Sep-16 13:00N 48°23' W 004°30'0 0.0
2017-Sep-16 12:30N 48°23' W 004°30'0 0.0
2017-Sep-16 12:00N 48°23' W 004°30'0 0.0
2017-Sep-16 11:30N 48°23' W 004°30'0 0.0
2017-Sep-16 11:00N 48°23' W 004°30'0 0.0
2017-Sep-16 10:30N 48°23' W 004°30'0 0.0
2017-Sep-16 10:00N 48°23' W 004°30'0 0.0
2017-Sep-16 09:30N 48°23' W 004°30'0 0.0
2017-Sep-16 09:00N 48°23' W 004°30'0 0.0
2017-Sep-16 08:30N 48°23' W 004°30'0 0.0
2017-Sep-16 08:00N 48°23' W 004°30'0 0.0
2017-Sep-16 07:30N 48°23' W 004°30'0 0.0
2017-Sep-16 07:00N 48°23' W 004°30'0 0.0
2017-Sep-16 06:30N 48°23' W 004°30'0 0.0
2017-Sep-16 06:00N 48°23' W 004°30'0 0.0
2017-Sep-16 05:30N 48°23' W 004°30'0 0.0
2017-Sep-16 05:00N 48°23' W 004°30'0 0.0
2017-Sep-16 04:30N 48°23' W 004°30'0 0.0
2017-Sep-16 04:00N 48°23' W 004°30'0 0.0
2017-Sep-16 03:30N 48°23' W 004°30'0 0.0
2017-Sep-16 03:00N 48°23' W 004°30'0 0.0
2017-Sep-16 02:30N 48°23' W 004°30'0 0.0
2017-Sep-16 02:00N 48°23' W 004°30'0 0.0
2017-Sep-16 01:30N 48°23' W 004°30'0 0.0
2017-Sep-16 01:00N 48°23' W 004°30'0 0.0
2017-Sep-16 00:30N 48°23' W 004°30'0 0.0
2017-Sep-16 00:00N 48°23' W 004°30'0 0.0
2017-Sep-15 23:30N 48°23' W 004°30'0 0.0
2017-Sep-15 23:00N 48°23' W 004°30'0 0.0
2017-Sep-15 22:30N 48°23' W 004°30'0 0.0
2017-Sep-15 22:00N 48°23' W 004°30'0 0.0
2017-Sep-15 21:30N 48°23' W 004°30'0 0.0
2017-Sep-15 21:00N 48°23' W 004°30'0 0.0
2017-Sep-15 20:30N 48°23' W 004°30'0 0.0
2017-Sep-15 20:00N 48°23' W 004°30'0 0.0
2017-Sep-15 19:30N 48°23' W 004°30'0 0.0
2017-Sep-15 19:00N 48°23' W 004°30'0 0.0
2017-Sep-15 18:30N 48°23' W 004°30'0 0.0
2017-Sep-15 18:00N 48°23' W 004°30'0 0.0
2017-Sep-15 17:30N 48°23' W 004°30'0 0.0
2017-Sep-15 17:00N 48°23' W 004°30'0 0.0
2017-Sep-15 16:30N 48°23' W 004°30'0 0.0
2017-Sep-15 16:00N 48°23' W 004°30'0 0.0
2017-Sep-15 15:30N 48°23' W 004°30'0 0.0
2017-Sep-15 15:00N 48°23' W 004°30'510.4
2017-Sep-15 14:30N 48°18' W 004°31'5 0.2
2017-Sep-14 07:33N 48°23' W 004°30'0 0.0
2017-Sep-14 07:30N 48°23' W 004°30'0 0.0
2017-Sep-14 07:00N 48°23' W 004°30'0 0.0
2017-Sep-14 06:31N 48°23' W 004°30'5 9.3
2017-Sep-14 06:00N 48°19' W 004°27'1 2.1
2017-Sep-14 05:31N 48°19' W 004°28'4 7.5
2017-Sep-14 05:01N 48°23' W 004°30'0 0.0
2017-Sep-14 04:31N 48°23' W 004°30'0 0.0
2017-Sep-14 04:01N 48°23' W 004°30'0 0.0
2017-Sep-14 03:31N 48°23' W 004°30'0 0.0
2017-Sep-14 03:01N 48°23' W 004°30'0 0.0
2017-Sep-14 02:31N 48°23' W 004°30'0 0.0
2017-Sep-14 02:01N 48°23' W 004°30'0 0.0
2017-Sep-14 01:31N 48°23' W 004°30'0 0.0
2017-Sep-14 01:01N 48°23' W 004°30'0 0.0
2017-Sep-14 00:31N 48°23' W 004°30'0 0.0
2017-Sep-14 00:01N 48°23' W 004°30'0 0.0
2017-Sep-13 23:31N 48°23' W 004°30'0 0.0
2017-Sep-13 23:01N 48°23' W 004°30'0 0.0
2017-Sep-13 22:31N 48°23' W 004°30'0 0.0
2017-Sep-13 22:01N 48°23' W 004°30'0 0.0
2017-Sep-13 21:30N 48°23' W 004°30'0 0.0
2017-Sep-13 21:01N 48°23' W 004°30'0 0.0
2017-Sep-13 20:31N 48°23' W 004°30'0 0.0
2017-Sep-13 20:01N 48°23' W 004°30'0 0.0
2017-Sep-13 19:31N 48°23' W 004°30'0 0.0
2017-Sep-13 19:01N 48°23' W 004°30'0 0.0
2017-Sep-13 18:31N 48°23' W 004°30'0 0.0
2017-Sep-13 18:01N 48°23' W 004°30'0 0.0
2017-Sep-13 17:31N 48°23' W 004°30'0 0.0
2017-Sep-13 17:01N 48°23' W 004°30'0 0.0
2017-Sep-13 16:31N 48°23' W 004°30'0 0.0
2017-Sep-13 16:01N 48°23' W 004°30'0 0.0
2017-Sep-13 15:31N 48°23' W 004°30'4 8.5
2017-Sep-13 15:00N 48°19' W 004°27'1 2.8
2017-Sep-13 14:30N 48°18' W 004°26'511.0
2017-Sep-13 14:00N 48°23' W 004°30'0 0.0
2017-Sep-13 13:31N 48°23' W 004°30'0 0.0
2017-Sep-13 13:01N 48°23' W 004°30'0 0.0
2017-Sep-13 12:31N 48°23' W 004°30'0 0.0
2017-Sep-13 12:00N 48°23' W 004°30'0 0.0
2017-Sep-13 11:31N 48°23' W 004°30'0 0.0
2017-Sep-13 11:01N 48°23' W 004°30'0 0.0
2017-Sep-13 10:31N 48°23' W 004°30'0 0.0
2017-Sep-13 10:01N 48°23' W 004°30'0 0.0
2017-Sep-13 09:31N 48°23' W 004°30'0 0.0
2017-Sep-13 09:01N 48°23' W 004°30'0 0.0
2017-Sep-13 08:31N 48°23' W 004°30'0 0.0
2017-Sep-13 08:01N 48°23' W 004°30'0 0.0
2017-Sep-13 07:31N 48°23' W 004°30'0 0.0
2017-Sep-13 07:01N 48°23' W 004°30'0 0.0
2017-Sep-13 06:31N 48°23' W 004°30'4 8.9
2017-Sep-13 06:01N 48°19' W 004°27'1 1.6
2017-Sep-13 05:30N 48°19' W 004°28'4 7.6
2017-Sep-13 05:01N 48°23' W 004°30'0 0.0
2017-Sep-13 04:31N 48°23' W 004°30'0 0.0
2017-Sep-13 04:01N 48°23' W 004°30'0 0.0
2017-Sep-13 03:31N 48°23' W 004°30'0 0.0
2017-Sep-13 03:01N 48°23' W 004°30'0 0.0
2017-Sep-13 02:31N 48°23' W 004°30'0 0.0
2017-Sep-13 02:01N 48°23' W 004°30'0 0.0
2017-Sep-13 01:31N 48°23' W 004°30'0 0.0
2017-Sep-13 01:01N 48°23' W 004°30'0 0.0
2017-Sep-13 00:31N 48°23' W 004°30'0 0.0
2017-Sep-13 00:01N 48°23' W 004°30'0 0.0
2017-Sep-12 23:31N 48°23' W 004°30'0 0.0
2017-Sep-12 23:00N 48°23' W 004°30'0 0.0
2017-Sep-12 22:31N 48°23' W 004°30'0 0.0
2017-Sep-12 22:01N 48°23' W 004°30'0 0.0
2017-Sep-12 21:31N 48°23' W 004°30'0 0.0
2017-Sep-12 21:00N 48°23' W 004°30'0 0.0
2017-Sep-12 20:31N 48°23' W 004°30'0 0.0
2017-Sep-12 20:00N 48°23' W 004°30'0 0.0
2017-Sep-12 19:31N 48°23' W 004°30'0 0.0
2017-Sep-12 19:01N 48°23' W 004°30'0 0.0
2017-Sep-12 18:31N 48°23' W 004°30'0 0.0
2017-Sep-12 18:01N 48°23' W 004°30'0 0.0
2017-Sep-12 17:31N 48°23' W 004°30'0 0.0
2017-Sep-12 17:01N 48°23' W 004°30'0 0.0
2017-Sep-12 16:31N 48°23' W 004°30'0 0.0
2017-Sep-12 16:01N 48°23' W 004°30'0 0.0
2017-Sep-12 15:31N 48°23' W 004°30'4 8.7
2017-Sep-12 15:01N 48°19' W 004°27'1 2.1
2017-Sep-12 14:31N 48°18' W 004°26'510.5
2017-Sep-12 14:00N 48°23' W 004°30'0 0.0
2017-Sep-12 13:30N 48°23' W 004°30'0 0.0
2017-Sep-12 13:00N 48°23' W 004°30'0 0.0
2017-Sep-12 12:30N 48°23' W 004°30'0 0.0
2017-Sep-12 12:00N 48°23' W 004°30'0 0.0
2017-Sep-12 11:30N 48°23' W 004°30'0 0.0
2017-Sep-12 11:00N 48°23' W 004°30'0 0.0
2017-Sep-12 10:30N 48°23' W 004°30'0 0.0
2017-Sep-12 10:00N 48°23' W 004°30'0 0.0
2017-Sep-12 09:30N 48°23' W 004°30'0 0.0
2017-Sep-12 09:00N 48°23' W 004°30'0 0.0
2017-Sep-12 08:30N 48°23' W 004°30'0 0.0
2017-Sep-12 08:00N 48°23' W 004°30'0 0.0
2017-Sep-12 07:30N 48°23' W 004°30'0 0.0
2017-Sep-12 07:00N 48°23' W 004°30'0 0.0
2017-Sep-12 06:30N 48°23' W 004°30'4 8.5
2017-Sep-12 06:00N 48°19' W 004°27'1 1.1
2017-Sep-12 05:31N 48°19' W 004°28'4 7.6
2017-Sep-12 05:01N 48°23' W 004°30'0 0.0
2017-Sep-12 04:30N 48°23' W 004°30'0 0.0
2017-Sep-12 04:00N 48°23' W 004°30'0 0.0
2017-Sep-12 03:30N 48°23' W 004°30'0 0.0
2017-Sep-12 03:00N 48°23' W 004°30'0 0.0
2017-Sep-12 02:30N 48°23' W 004°30'0 0.0
2017-Sep-12 02:00N 48°23' W 004°30'0 0.0
2017-Sep-12 01:31N 48°23' W 004°30'0 0.0
2017-Sep-12 01:00N 48°23' W 004°30'0 0.0
2017-Sep-12 00:30N 48°23' W 004°30'0 0.0
2017-Sep-12 00:00N 48°23' W 004°30'0 0.0
2017-Sep-11 23:30N 48°23' W 004°30'0 0.0
2017-Sep-11 23:00N 48°23' W 004°30'0 0.0
2017-Sep-11 22:30N 48°23' W 004°30'0 0.0
2017-Sep-11 22:00N 48°23' W 004°30'0 0.0
2017-Sep-11 21:30N 48°23' W 004°30'0 0.0
2017-Sep-11 21:00N 48°23' W 004°30'0 0.0
2017-Sep-11 20:30N 48°23' W 004°30'0 0.0
2017-Sep-11 20:00N 48°23' W 004°30'0 0.0
2017-Sep-11 19:30N 48°23' W 004°30'0 0.0
2017-Sep-11 19:00N 48°23' W 004°30'0 0.0
2017-Sep-11 18:30N 48°23' W 004°30'0 0.0
2017-Sep-11 18:00N 48°23' W 004°30'0 0.0
2017-Sep-11 17:30N 48°23' W 004°30'0 0.0
2017-Sep-11 17:00N 48°23' W 004°30'0 0.0
2017-Sep-11 16:30N 48°23' W 004°30'0 0.0
2017-Sep-11 16:00N 48°23' W 004°30'0 0.0
2017-Sep-11 15:30N 48°23' W 004°30'4 9.0
2017-Sep-11 15:00N 48°19' W 004°27'1 2.3
2017-Sep-11 14:30N 48°18' W 004°25'611.0
2017-Sep-11 14:01N 48°23' W 004°30'0 0.0
2017-Sep-11 13:30N 48°23' W 004°30'0 0.0
2017-Sep-11 13:01N 48°23' W 004°30'0 0.0
2017-Sep-11 12:31N 48°23' W 004°30'0 0.0
2017-Sep-11 12:01N 48°23' W 004°30'0 0.0
2017-Sep-11 11:31N 48°23' W 004°30'0 0.0
2017-Sep-11 11:01N 48°23' W 004°30'0 0.0
2017-Sep-11 10:31N 48°23' W 004°30'0 0.0
2017-Sep-11 10:01N 48°23' W 004°30'0 0.0
2017-Sep-11 09:31N 48°23' W 004°30'0 0.0
2017-Sep-11 09:00N 48°23' W 004°30'0 0.0
2017-Sep-11 08:30N 48°23' W 004°30'0 0.0
2017-Sep-11 08:00N 48°23' W 004°30'0 0.0
2017-Sep-11 07:30N 48°23' W 004°30'0 0.0
2017-Sep-11 07:00N 48°23' W 004°30'0 0.0
2017-Sep-11 06:30N 48°23' W 004°30'5 9.8
2017-Sep-11 06:01N 48°19' W 004°26'1 2.8
2017-Sep-11 05:30N 48°19' W 004°28'4 7.3
2017-Sep-11 05:00N 48°23' W 004°30'0 0.0
2017-Sep-11 04:30N 48°23' W 004°30'0 0.0
2017-Sep-11 04:00N 48°23' W 004°30'0 0.0
2017-Sep-11 03:30N 48°23' W 004°30'0 0.0
2017-Sep-11 03:00N 48°23' W 004°30'0 0.0
2017-Sep-11 02:30N 48°23' W 004°30'0 0.0
2017-Sep-11 02:00N 48°23' W 004°30'0 0.0
2017-Sep-11 01:30N 48°23' W 004°30'0 0.0
2017-Sep-11 01:00N 48°23' W 004°30'0 0.0
2017-Sep-11 00:30N 48°23' W 004°30'0 0.0
2017-Sep-11 00:00N 48°23' W 004°30'0 0.0
2017-Sep-10 23:30N 48°23' W 004°30'0 0.0
2017-Sep-10 23:00N 48°23' W 004°30'0 0.0
2017-Sep-10 22:30N 48°23' W 004°30'0 0.0
2017-Sep-10 22:00N 48°23' W 004°30'0 0.0
2017-Sep-10 21:30N 48°23' W 004°30'0 0.0
2017-Sep-10 21:00N 48°23' W 004°30'0 0.0
2017-Sep-10 20:30N 48°23' W 004°30'0 0.0
2017-Sep-10 20:00N 48°23' W 004°30'0 0.0
2017-Sep-10 19:30N 48°23' W 004°30'0 0.0
2017-Sep-10 19:00N 48°23' W 004°30'0 0.0
2017-Sep-10 18:30N 48°23' W 004°30'0 0.0
2017-Sep-10 18:00N 48°23' W 004°30'0 0.0
2017-Sep-10 17:30N 48°23' W 004°30'0 0.0
2017-Sep-10 17:00N 48°23' W 004°30'0 0.0
2017-Sep-10 16:30N 48°23' W 004°30'0 0.0
2017-Sep-10 16:00N 48°23' W 004°30'0 0.0
2017-Sep-10 15:30N 48°23' W 004°30'0 0.0
2017-Sep-10 15:00N 48°23' W 004°30'0 0.0
2017-Sep-10 14:00N 48°23' W 004°30'0 0.0
2017-Sep-10 13:30N 48°23' W 004°30'0 0.0
2017-Sep-10 13:00N 48°23' W 004°30'0 0.0
2017-Sep-10 12:30N 48°23' W 004°30'0 0.0
2017-Sep-10 12:00N 48°23' W 004°30'0 0.0
2017-Sep-10 11:30N 48°23' W 004°30'0 0.0
2017-Sep-10 11:00N 48°23' W 004°30'0 0.0
2017-Sep-10 10:30N 48°23' W 004°30'0 0.0
2017-Sep-10 10:00N 48°23' W 004°30'0 0.0
2017-Sep-10 09:30N 48°23' W 004°30'0 0.0
2017-Sep-10 09:00N 48°23' W 004°30'0 0.0
2017-Sep-10 08:30N 48°23' W 004°30'0 0.0
2017-Sep-10 08:00N 48°23' W 004°30'0 0.0
2017-Sep-10 07:30N 48°23' W 004°30'0 0.0
2017-Sep-10 07:00N 48°23' W 004°30'0 0.0
2017-Sep-10 06:30N 48°23' W 004°30'0 0.0
2017-Sep-10 06:00N 48°23' W 004°30'0 0.0
2017-Sep-10 05:30N 48°23' W 004°30'0 0.0
2017-Sep-10 05:00N 48°23' W 004°30'0 0.0
2017-Sep-10 04:30N 48°23' W 004°30'0 0.0
2017-Sep-10 04:00N 48°23' W 004°30'0 0.0
2017-Sep-10 03:30N 48°23' W 004°30'0 0.0
2017-Sep-10 03:00N 48°23' W 004°30'0 0.0
2017-Sep-10 02:30N 48°23' W 004°30'0 0.0
2017-Sep-10 02:00N 48°23' W 004°30'0 0.0
2017-Sep-10 01:30N 48°23' W 004°30'0 0.0
2017-Sep-10 01:00N 48°23' W 004°30'  
Track history (hours):
 
Tides and Currents Weather Stations Pressure Air Temp Water Temp Dewpoint Dewpoint Depression Visibility Wind Speed Wind Dir Waves Ship Positions

Treberon

Last reported at 2017-Sep-20 00:30 UTC. Time now 2017-Sep-20 00:29 UTC.
Position N 48°23' W 004°30'.

MMSI: 226544246.

Date/timePositionNaut miles runAvg speedWind from/ knotsBaromVisibWave heightAir tempDewpointWater temp
2017-Sep-20 00:30N 48°23' W 004°30'0 0.0
2017-Sep-20 00:00N 48°23' W 004°30'0 0.0
2017-Sep-19 23:30N 48°23' W 004°30'0 0.0
2017-Sep-19 23:00N 48°23' W 004°30'0 0.0
2017-Sep-19 22:30N 48°23' W 004°30'0 0.0
2017-Sep-19 22:00N 48°23' W 004°30'0 0.0
2017-Sep-19 21:30N 48°23' W 004°30'0 0.0
2017-Sep-19 21:00N 48°23' W 004°30'0 0.0
2017-Sep-19 20:30N 48°23' W 004°30'0 0.0
2017-Sep-19 20:00N 48°23' W 004°30'0 0.0
2017-Sep-19 19:30N 48°23' W 004°30'0 0.0
2017-Sep-19 19:00N 48°23' W 004°30'0 0.0
2017-Sep-19 18:30N 48°23' W 004°30'0 0.0
2017-Sep-19 18:00N 48°23' W 004°30'0 0.0
2017-Sep-19 17:30N 48°23' W 004°30'0 0.0
2017-Sep-19 17:00N 48°23' W 004°30'0 0.0
2017-Sep-19 16:30N 48°23' W 004°30'0 0.0
2017-Sep-19 16:00N 48°23' W 004°30'0 0.0
2017-Sep-19 15:30N 48°23' W 004°30'0 0.0
2017-Sep-19 15:00N 48°23' W 004°30'510.3
2017-Sep-19 14:30N 48°18' W 004°31'4 7.1
2017-Sep-19 14:00N 48°21' W 004°29'2 3.5
2017-Sep-19 13:30N 48°23' W 004°30'0 0.0
2017-Sep-19 13:00N 48°23' W 004°30'0 0.0
2017-Sep-19 12:30N 48°23' W 004°30'0 0.0
2017-Sep-19 12:00N 48°23' W 004°30'2 3.3
2017-Sep-19 11:31N 48°21' W 004°29'4 7.1
2017-Sep-19 11:00N 48°18' W 004°28'1 2.6
2017-Sep-19 10:30N 48°19' W 004°28'4 7.9
2017-Sep-19 10:00N 48°23' W 004°30'0 0.0
2017-Sep-19 09:30N 48°23' W 004°30'0 0.0
2017-Sep-19 09:00N 48°23' W 004°30'0 0.0
2017-Sep-19 08:28N 48°23' W 004°30'0 0.0
2017-Sep-19 08:00N 48°23' W 004°30'0 0.0
2017-Sep-19 07:26N 48°23' W 004°30'0 0.0
2017-Sep-19 07:01N 48°23' W 004°30'0 0.0
2017-Sep-19 06:31N 48°23' W 004°30'3 6.7
2017-Sep-19 06:01N 48°20' W 004°29'0 0.3
2017-Sep-19 05:31N 48°19' W 004°29'3 6.9
2017-Sep-19 05:00N 48°23' W 004°30'0 0.0
2017-Sep-19 04:30N 48°23' W 004°30'0 0.0
2017-Sep-19 04:00N 48°23' W 004°30'0 0.0
2017-Sep-19 03:30N 48°23' W 004°30'0 0.0
2017-Sep-19 03:00N 48°23' W 004°30'0 0.0
2017-Sep-19 02:30N 48°23' W 004°30'0 0.0
2017-Sep-19 01:55N 48°23' W 004°30'0 0.0
2017-Sep-19 01:30N 48°23' W 004°30'0 0.0
2017-Sep-19 01:00N 48°23' W 004°30'0 0.0
2017-Sep-19 00:30N 48°23' W 004°30'0 0.0
2017-Sep-19 00:00N 48°23' W 004°30'0 0.0
2017-Sep-18 23:30N 48°23' W 004°30'0 0.0
2017-Sep-18 22:57N 48°23' W 004°30'0 0.0
2017-Sep-18 21:44N 48°23' W 004°30'0 0.0
2017-Sep-18 21:30N 48°23' W 004°30'0 0.0
2017-Sep-18 19:04N 48°23' W 004°30'0 0.0
2017-Sep-18 19:00N 48°23' W 004°30'0 0.0
2017-Sep-18 18:30N 48°23' W 004°30'0 0.0
2017-Sep-18 18:00N 48°23' W 004°30'0 0.0
2017-Sep-18 17:30N 48°23' W 004°30'0 0.0
2017-Sep-18 17:00N 48°23' W 004°30'0 0.0
2017-Sep-18 16:30N 48°23' W 004°30'0 0.0
2017-Sep-18 16:00N 48°23' W 004°30'0 0.0
2017-Sep-18 15:30N 48°23' W 004°30'0 0.0
2017-Sep-18 15:00N 48°23' W 004°30'510.3
2017-Sep-18 14:30N 48°18' W 004°31'4 7.4
2017-Sep-18 14:01N 48°21' W 004°29'2 3.2
2017-Sep-18 13:30N 48°23' W 004°30'0 0.0
2017-Sep-18 13:00N 48°23' W 004°30'0 0.0
2017-Sep-18 12:30N 48°23' W 004°30'0 0.0
2017-Sep-18 12:01N 48°23' W 004°30'2 4.9
2017-Sep-18 11:30N 48°20' W 004°30'3 5.7
2017-Sep-18 11:00N 48°18' W 004°28'2 3.5
2017-Sep-18 10:31N 48°20' W 004°28'3 6.9
2017-Sep-18 10:01N 48°23' W 004°30'0 0.0
2017-Sep-18 09:31N 48°23' W 004°30'0 0.0
2017-Sep-18 09:00N 48°23' W 004°30'0 0.0
2017-Sep-18 08:31N 48°23' W 004°30'0 0.0
2017-Sep-18 08:01N 48°23' W 004°30'0 0.0
2017-Sep-18 07:30N 48°23' W 004°30'0 0.0
2017-Sep-18 06:52N 48°23' W 004°30'0 0.0
2017-Sep-18 06:30N 48°23' W 004°30'4 7.9
2017-Sep-18 06:01N 48°19' W 004°29'1 2.2
2017-Sep-18 05:31N 48°20' W 004°29'3 5.7
2017-Sep-18 05:00N 48°23' W 004°30'0 0.0
2017-Sep-18 04:30N 48°23' W 004°30'0 0.0
2017-Sep-18 04:00N 48°23' W 004°30'0 0.0
2017-Sep-18 03:30N 48°23' W 004°30'0 0.0
2017-Sep-18 03:00N 48°23' W 004°30'0 0.0
2017-Sep-18 02:30N 48°23' W 004°30'0 0.0
2017-Sep-18 02:00N 48°23' W 004°30'0 0.0
2017-Sep-18 01:30N 48°23' W 004°30'0 0.0
2017-Sep-18 01:00N 48°23' W 004°30'0 0.0
2017-Sep-18 00:30N 48°23' W 004°30'0 0.0
2017-Sep-18 00:00N 48°23' W 004°30'0 0.0
2017-Sep-17 23:30N 48°23' W 004°30'0 0.0
2017-Sep-17 23:00N 48°23' W 004°30'0 0.0
2017-Sep-17 22:30N 48°23' W 004°30'0 0.0
2017-Sep-17 22:00N 48°23' W 004°30'0 0.0
2017-Sep-17 21:30N 48°23' W 004°30'0 0.0
2017-Sep-17 21:00N 48°23' W 004°30'0 0.0
2017-Sep-17 20:30N 48°23' W 004°30'0 0.0
2017-Sep-17 20:00N 48°23' W 004°30'0 0.0
2017-Sep-17 19:30N 48°23' W 004°30'0 0.0
2017-Sep-17 19:00N 48°23' W 004°30'0 0.0
2017-Sep-17 18:30N 48°23' W 004°30'0 0.0
2017-Sep-17 18:00N 48°23' W 004°30'0 0.0
2017-Sep-17 17:30N 48°23' W 004°30'0 0.0
2017-Sep-17 17:00N 48°23' W 004°30'0 0.0
2017-Sep-17 16:30N 48°23' W 004°30'0 0.0
2017-Sep-17 16:00N 48°23' W 004°30'0 0.0
2017-Sep-17 15:30N 48°23' W 004°30'0 0.0
2017-Sep-17 15:00N 48°23' W 004°30'0 0.0
2017-Sep-17 14:30N 48°23' W 004°30'0 0.0
2017-Sep-17 14:00N 48°23' W 004°30'0 0.0
2017-Sep-17 13:30N 48°23' W 004°30'0 0.0
2017-Sep-17 13:00N 48°23' W 004°30'0 0.0
2017-Sep-17 12:30N 48°23' W 004°30'0 0.0
2017-Sep-17 12:00N 48°23' W 004°30'0 0.0
2017-Sep-17 11:30N 48°23' W 004°30'0 0.0
2017-Sep-17 11:00N 48°23' W 004°30'0 0.0
2017-Sep-17 10:30N 48°23' W 004°30'0 0.0
2017-Sep-17 10:00N 48°23' W 004°30'0 0.0
2017-Sep-17 09:30N 48°23' W 004°30'0 0.0
2017-Sep-17 09:00N 48°23' W 004°30'0 0.0
2017-Sep-17 08:30N 48°23' W 004°30'0 0.0
2017-Sep-17 08:00N 48°23' W 004°30'0 0.0
2017-Sep-17 07:30N 48°23' W 004°30'0 0.0
2017-Sep-17 07:00N 48°23' W 004°30'0 0.0
2017-Sep-17 06:30N 48°23' W 004°30'0 0.0
2017-Sep-17 06:00N 48°23' W 004°30'0 0.0
2017-Sep-17 05:30N 48°23' W 004°30'0 0.0
2017-Sep-17 05:00N 48°23' W 004°30'0 0.0
2017-Sep-17 04:30N 48°23' W 004°30'0 0.0
2017-Sep-17 04:00N 48°23' W 004°30'0 0.0
2017-Sep-17 03:30N 48°23' W 004°30'0 0.0
2017-Sep-17 03:00N 48°23' W 004°30'0 0.0
2017-Sep-17 02:30N 48°23' W 004°30'0 0.0
2017-Sep-17 02:00N 48°23' W 004°30'0 0.0
2017-Sep-17 01:30N 48°23' W 004°30'0 0.0
2017-Sep-17 01:00N 48°23' W 004°30'0 0.0
2017-Sep-17 00:30N 48°23' W 004°30'0 0.0
2017-Sep-17 00:00N 48°23' W 004°30'0 0.0
2017-Sep-16 23:30N 48°23' W 004°30'0 0.0
2017-Sep-16 23:00N 48°23' W 004°30'0 0.0
2017-Sep-16 22:30N 48°23' W 004°30'0 0.0
2017-Sep-16 22:00N 48°23' W 004°30'0 0.0
2017-Sep-16 21:30N 48°23' W 004°30'0 0.0
2017-Sep-16 21:00N 48°23' W 004°30'0 0.0
2017-Sep-16 20:30N 48°23' W 004°30'0 0.0
2017-Sep-16 20:00N 48°23' W 004°30'0 0.0
2017-Sep-16 19:30N 48°23' W 004°30'0 0.0
2017-Sep-16 19:00N 48°23' W 004°30'0 0.0
2017-Sep-16 18:30N 48°23' W 004°30'0 0.0
2017-Sep-16 18:00N 48°23' W 004°30'0 0.0
2017-Sep-16 17:30N 48°23' W 004°30'0 0.0
2017-Sep-16 17:00N 48°23' W 004°30'0 0.0
2017-Sep-16 16:30N 48°23' W 004°30'0 0.0
2017-Sep-16 16:00N 48°23' W 004°30'0 0.0
2017-Sep-16 15:30N 48°23' W 004°30'0 0.0
2017-Sep-16 15:00N 48°23' W 004°30'0 0.0
2017-Sep-16 14:30N 48°23' W 004°30'0 0.0
2017-Sep-16 14:00N 48°23' W 004°30'0 0.0
2017-Sep-16 13:30N 48°23' W 004°30'0 0.0
2017-Sep-16 13:00N 48°23' W 004°30'0 0.0
2017-Sep-16 12:30N 48°23' W 004°30'0 0.0
2017-Sep-16 12:00N 48°23' W 004°30'0 0.0
2017-Sep-16 11:30N 48°23' W 004°30'0 0.0
2017-Sep-16 11:00N 48°23' W 004°30'0 0.0
2017-Sep-16 10:30N 48°23' W 004°30'0 0.0
2017-Sep-16 10:00N 48°23' W 004°30'0 0.0
2017-Sep-16 09:30N 48°23' W 004°30'0 0.0
2017-Sep-16 09:00N 48°23' W 004°30'0 0.0
2017-Sep-16 08:30N 48°23' W 004°30'0 0.0
2017-Sep-16 08:00N 48°23' W 004°30'0 0.0
2017-Sep-16 07:30N 48°23' W 004°30'0 0.0
2017-Sep-16 07:00N 48°23' W 004°30'0 0.0
2017-Sep-16 06:30N 48°23' W 004°30'0 0.0
2017-Sep-16 06:00N 48°23' W 004°30'0 0.0
2017-Sep-16 05:30N 48°23' W 004°30'0 0.0
2017-Sep-16 05:00N 48°23' W 004°30'0 0.0
2017-Sep-16 04:30N 48°23' W 004°30'0 0.0
2017-Sep-16 04:00N 48°23' W 004°30'0 0.0
2017-Sep-16 03:30N 48°23' W 004°30'0 0.0
2017-Sep-16 03:00N 48°23' W 004°30'0 0.0
2017-Sep-16 02:30N 48°23' W 004°30'0 0.0
2017-Sep-16 02:00N 48°23' W 004°30'0 0.0
2017-Sep-16 01:30N 48°23' W 004°30'0 0.0
2017-Sep-16 01:00N 48°23' W 004°30'0 0.0
2017-Sep-16 00:30N 48°23' W 004°30'0 0.0
2017-Sep-16 00:00N 48°23' W 004°30'0 0.0
2017-Sep-15 23:30N 48°23' W 004°30'0 0.0
2017-Sep-15 23:00N 48°23' W 004°30'0 0.0
2017-Sep-15 22:30N 48°23' W 004°30'0 0.0
2017-Sep-15 22:00N 48°23' W 004°30'0 0.0
2017-Sep-15 21:30N 48°23' W 004°30'0 0.0
2017-Sep-15 21:00N 48°23' W 004°30'0 0.0
2017-Sep-15 20:30N 48°23' W 004°30'0 0.0
2017-Sep-15 20:00N 48°23' W 004°30'0 0.0
2017-Sep-15 19:30N 48°23' W 004°30'0 0.0
2017-Sep-15 19:00N 48°23' W 004°30'0 0.0
2017-Sep-15 18:30N 48°23' W 004°30'0 0.0
2017-Sep-15 18:00N 48°23' W 004°30'0 0.0
2017-Sep-15 17:30N 48°23' W 004°30'0 0.0
2017-Sep-15 17:00N 48°23' W 004°30'0 0.0
2017-Sep-15 16:30N 48°23' W 004°30'0 0.0
2017-Sep-15 16:00N 48°23' W 004°30'0 0.0
2017-Sep-15 15:30N 48°23' W 004°30'0 0.0
2017-Sep-15 15:00N 48°23' W 004°30'510.4
2017-Sep-15 14:30N 48°18' W 004°31'5 0.2
2017-Sep-14 07:33N 48°23' W 004°30'0 0.0
2017-Sep-14 07:30N 48°23' W 004°30'0 0.0
2017-Sep-14 07:00N 48°23' W 004°30'0 0.0
2017-Sep-14 06:31N 48°23' W 004°30'5 9.3
2017-Sep-14 06:00N 48°19' W 004°27'1 2.1
2017-Sep-14 05:31N 48°19' W 004°28'4 7.5
2017-Sep-14 05:01N 48°23' W 004°30'0 0.0
2017-Sep-14 04:31N 48°23' W 004°30'0 0.0
2017-Sep-14 04:01N 48°23' W 004°30'0 0.0
2017-Sep-14 03:31N 48°23' W 004°30'0 0.0
2017-Sep-14 03:01N 48°23' W 004°30'0 0.0
2017-Sep-14 02:31N 48°23' W 004°30'0 0.0
2017-Sep-14 02:01N 48°23' W 004°30'0 0.0
2017-Sep-14 01:31N 48°23' W 004°30'0 0.0
2017-Sep-14 01:01N 48°23' W 004°30'0 0.0
2017-Sep-14 00:31N 48°23' W 004°30'0 0.0
2017-Sep-14 00:01N 48°23' W 004°30'0 0.0
2017-Sep-13 23:31N 48°23' W 004°30'0 0.0
2017-Sep-13 23:01N 48°23' W 004°30'0 0.0
2017-Sep-13 22:31N 48°23' W 004°30'0 0.0
2017-Sep-13 22:01N 48°23' W 004°30'0 0.0
2017-Sep-13 21:30N 48°23' W 004°30'0 0.0
2017-Sep-13 21:01N 48°23' W 004°30'0 0.0
2017-Sep-13 20:31N 48°23' W 004°30'0 0.0
2017-Sep-13 20:01N 48°23' W 004°30'0 0.0
2017-Sep-13 19:31N 48°23' W 004°30'0 0.0
2017-Sep-13 19:01N 48°23' W 004°30'0 0.0
2017-Sep-13 18:31N 48°23' W 004°30'0 0.0
2017-Sep-13 18:01N 48°23' W 004°30'0 0.0
2017-Sep-13 17:31N 48°23' W 004°30'0 0.0
2017-Sep-13 17:01N 48°23' W 004°30'0 0.0
2017-Sep-13 16:31N 48°23' W 004°30'0 0.0
2017-Sep-13 16:01N 48°23' W 004°30'0 0.0
2017-Sep-13 15:31N 48°23' W 004°30'4 8.5
2017-Sep-13 15:00N 48°19' W 004°27'1 2.8
2017-Sep-13 14:30N 48°18' W 004°26'511.0
2017-Sep-13 14:00N 48°23' W 004°30'0 0.0
2017-Sep-13 13:31N 48°23' W 004°30'0 0.0
2017-Sep-13 13:01N 48°23' W 004°30'0 0.0
2017-Sep-13 12:31N 48°23' W 004°30'0 0.0
2017-Sep-13 12:00N 48°23' W 004°30'0 0.0
2017-Sep-13 11:31N 48°23' W 004°30'0 0.0
2017-Sep-13 11:01N 48°23' W 004°30'0 0.0
2017-Sep-13 10:31N 48°23' W 004°30'0 0.0
2017-Sep-13 10:01N 48°23' W 004°30'0 0.0
2017-Sep-13 09:31N 48°23' W 004°30'0 0.0
2017-Sep-13 09:01N 48°23' W 004°30'0 0.0
2017-Sep-13 08:31N 48°23' W 004°30'0 0.0
2017-Sep-13 08:01N 48°23' W 004°30'0 0.0
2017-Sep-13 07:31N 48°23' W 004°30'0 0.0
2017-Sep-13 07:01N 48°23' W 004°30'0 0.0
2017-Sep-13 06:31N 48°23' W 004°30'4 8.9
2017-Sep-13 06:01N 48°19' W 004°27'1 1.6
2017-Sep-13 05:30N 48°19' W 004°28'4 7.6
2017-Sep-13 05:01N 48°23' W 004°30'0 0.0
2017-Sep-13 04:31N 48°23' W 004°30'0 0.0
2017-Sep-13 04:01N 48°23' W 004°30'0 0.0
2017-Sep-13 03:31N 48°23' W 004°30'0 0.0
2017-Sep-13 03:01N 48°23' W 004°30'0 0.0
2017-Sep-13 02:31N 48°23' W 004°30'0 0.0
2017-Sep-13 02:01N 48°23' W 004°30'0 0.0
2017-Sep-13 01:31N 48°23' W 004°30'0 0.0
2017-Sep-13 01:01N 48°23' W 004°30'0 0.0
2017-Sep-13 00:31N 48°23' W 004°30'0 0.0
2017-Sep-13 00:01N 48°23' W 004°30'0 0.0
2017-Sep-12 23:31N 48°23' W 004°30'0 0.0
2017-Sep-12 23:00N 48°23' W 004°30'0 0.0
2017-Sep-12 22:31N 48°23' W 004°30'0 0.0
2017-Sep-12 22:01N 48°23' W 004°30'0 0.0
2017-Sep-12 21:31N 48°23' W 004°30'0 0.0
2017-Sep-12 21:00N 48°23' W 004°30'0 0.0
2017-Sep-12 20:31N 48°23' W 004°30'0 0.0
2017-Sep-12 20:00N 48°23' W 004°30'0 0.0
2017-Sep-12 19:31N 48°23' W 004°30'0 0.0
2017-Sep-12 19:01N 48°23' W 004°30'0 0.0
2017-Sep-12 18:31N 48°23' W 004°30'0 0.0
2017-Sep-12 18:01N 48°23' W 004°30'0 0.0
2017-Sep-12 17:31N 48°23' W 004°30'0 0.0
2017-Sep-12 17:01N 48°23' W 004°30'0 0.0
2017-Sep-12 16:31N 48°23' W 004°30'0 0.0
2017-Sep-12 16:01N 48°23' W 004°30'0 0.0
2017-Sep-12 15:31N 48°23' W 004°30'4 8.7
2017-Sep-12 15:01N 48°19' W 004°27'1 2.1
2017-Sep-12 14:31N 48°18' W 004°26'510.5
2017-Sep-12 14:00N 48°23' W 004°30'0 0.0
2017-Sep-12 13:30N 48°23' W 004°30'0 0.0
2017-Sep-12 13:00N 48°23' W 004°30'0 0.0
2017-Sep-12 12:30N 48°23' W 004°30'0 0.0
2017-Sep-12 12:00N 48°23' W 004°30'0 0.0
2017-Sep-12 11:30N 48°23' W 004°30'0 0.0
2017-Sep-12 11:00N 48°23' W 004°30'0 0.0
2017-Sep-12 10:30N 48°23' W 004°30'0 0.0
2017-Sep-12 10:00N 48°23' W 004°30'0 0.0
2017-Sep-12 09:30N 48°23' W 004°30'0 0.0
2017-Sep-12 09:00N 48°23' W 004°30'0 0.0
2017-Sep-12 08:30N 48°23' W 004°30'0 0.0
2017-Sep-12 08:00N 48°23' W 004°30'0 0.0
2017-Sep-12 07:30N 48°23' W 004°30'0 0.0
2017-Sep-12 07:00N 48°23' W 004°30'0 0.0
2017-Sep-12 06:30N 48°23' W 004°30'4 8.5
2017-Sep-12 06:00N 48°19' W 004°27'1 1.1
2017-Sep-12 05:31N 48°19' W 004°28'4 7.6
2017-Sep-12 05:01N 48°23' W 004°30'0 0.0
2017-Sep-12 04:30N 48°23' W 004°30'0 0.0
2017-Sep-12 04:00N 48°23' W 004°30'0 0.0
2017-Sep-12 03:30N 48°23' W 004°30'0 0.0
2017-Sep-12 03:00N 48°23' W 004°30'0 0.0
2017-Sep-12 02:30N 48°23' W 004°30'0 0.0
2017-Sep-12 02:00N 48°23' W 004°30'0 0.0
2017-Sep-12 01:31N 48°23' W 004°30'0 0.0
2017-Sep-12 01:00N 48°23' W 004°30'0 0.0
2017-Sep-12 00:30N 48°23' W 004°30'0 0.0
2017-Sep-12 00:00N 48°23' W 004°30'0 0.0
2017-Sep-11 23:30N 48°23' W 004°30'0 0.0
2017-Sep-11 23:00N 48°23' W 004°30'0 0.0
2017-Sep-11 22:30N 48°23' W 004°30'0 0.0
2017-Sep-11 22:00N 48°23' W 004°30'0 0.0
2017-Sep-11 21:30N 48°23' W 004°30'0 0.0
2017-Sep-11 21:00N 48°23' W 004°30'0 0.0
2017-Sep-11 20:30N 48°23' W 004°30'0 0.0
2017-Sep-11 20:00N 48°23' W 004°30'0 0.0
2017-Sep-11 19:30N 48°23' W 004°30'0 0.0
2017-Sep-11 19:00N 48°23' W 004°30'0 0.0
2017-Sep-11 18:30N 48°23' W 004°30'0 0.0
2017-Sep-11 18:00N 48°23' W 004°30'0 0.0
2017-Sep-11 17:30N 48°23' W 004°30'0 0.0
2017-Sep-11 17:00N 48°23' W 004°30'0 0.0
2017-Sep-11 16:30N 48°23' W 004°30'0 0.0
2017-Sep-11 16:00N 48°23' W 004°30'0 0.0
2017-Sep-11 15:30N 48°23' W 004°30'4 9.0
2017-Sep-11 15:00N 48°19' W 004°27'1 2.3
2017-Sep-11 14:30N 48°18' W 004°25'611.0
2017-Sep-11 14:01N 48°23' W 004°30'0 0.0
2017-Sep-11 13:30N 48°23' W 004°30'0 0.0
2017-Sep-11 13:01N 48°23' W 004°30'0 0.0
2017-Sep-11 12:31N 48°23' W 004°30'0 0.0
2017-Sep-11 12:01N 48°23' W 004°30'0 0.0
2017-Sep-11 11:31N 48°23' W 004°30'0 0.0
2017-Sep-11 11:01N 48°23' W 004°30'0 0.0
2017-Sep-11 10:31N 48°23' W 004°30'0 0.0
2017-Sep-11 10:01N 48°23' W 004°30'0 0.0
2017-Sep-11 09:31N 48°23' W 004°30'0 0.0
2017-Sep-11 09:00N 48°23' W 004°30'0 0.0
2017-Sep-11 08:30N 48°23' W 004°30'0 0.0
2017-Sep-11 08:00N 48°23' W 004°30'0 0.0
2017-Sep-11 07:30N 48°23' W 004°30'0 0.0
2017-Sep-11 07:00N 48°23' W 004°30'0 0.0
2017-Sep-11 06:30N 48°23' W 004°30'5 9.8
2017-Sep-11 06:01N 48°19' W 004°26'1 2.8
2017-Sep-11 05:30N 48°19' W 004°28'4 7.3
2017-Sep-11 05:00N 48°23' W 004°30'0 0.0
2017-Sep-11 04:30N 48°23' W 004°30'0 0.0
2017-Sep-11 04:00N 48°23' W 004°30'0 0.0
2017-Sep-11 03:30N 48°23' W 004°30'0 0.0
2017-Sep-11 03:00N 48°23' W 004°30'0 0.0
2017-Sep-11 02:30N 48°23' W 004°30'0 0.0
2017-Sep-11 02:00N 48°23' W 004°30'0 0.0
2017-Sep-11 01:30N 48°23' W 004°30'0 0.0
2017-Sep-11 01:00N 48°23' W 004°30'0 0.0
2017-Sep-11 00:30N 48°23' W 004°30'0 0.0
2017-Sep-11 00:00N 48°23' W 004°30'0 0.0
2017-Sep-10 23:30N 48°23' W 004°30'0 0.0
2017-Sep-10 23:00N 48°23' W 004°30'0 0.0
2017-Sep-10 22:30N 48°23' W 004°30'0 0.0
2017-Sep-10 22:00N 48°23' W 004°30'0 0.0
2017-Sep-10 21:30N 48°23' W 004°30'0 0.0
2017-Sep-10 21:00N 48°23' W 004°30'0 0.0
2017-Sep-10 20:30N 48°23' W 004°30'0 0.0
2017-Sep-10 20:00N 48°23' W 004°30'0 0.0
2017-Sep-10 19:30N 48°23' W 004°30'0 0.0
2017-Sep-10 19:00N 48°23' W 004°30'0 0.0
2017-Sep-10 18:30N 48°23' W 004°30'0 0.0
2017-Sep-10 18:00N 48°23' W 004°30'0 0.0
2017-Sep-10 17:30N 48°23' W 004°30'0 0.0
2017-Sep-10 17:00N 48°23' W 004°30'0 0.0
2017-Sep-10 16:30N 48°23' W 004°30'0 0.0
2017-Sep-10 16:00N 48°23' W 004°30'0 0.0
2017-Sep-10 15:30N 48°23' W 004°30'0 0.0
2017-Sep-10 15:00N 48°23' W 004°30'0 0.0
2017-Sep-10 14:00N 48°23' W 004°30'0 0.0
2017-Sep-10 13:30N 48°23' W 004°30'0 0.0
2017-Sep-10 13:00N 48°23' W 004°30'0 0.0
2017-Sep-10 12:30N 48°23' W 004°30'0 0.0
2017-Sep-10 12:00N 48°23' W 004°30'0 0.0
2017-Sep-10 11:30N 48°23' W 004°30'0 0.0
2017-Sep-10 11:00N 48°23' W 004°30'0 0.0
2017-Sep-10 10:30N 48°23' W 004°30'0 0.0
2017-Sep-10 10:00N 48°23' W 004°30'0 0.0
2017-Sep-10 09:30N 48°23' W 004°30'0 0.0
2017-Sep-10 09:00N 48°23' W 004°30'0 0.0
2017-Sep-10 08:30N 48°23' W 004°30'0 0.0
2017-Sep-10 08:00N 48°23' W 004°30'0 0.0
2017-Sep-10 07:30N 48°23' W 004°30'0 0.0
2017-Sep-10 07:00N 48°23' W 004°30'0 0.0
2017-Sep-10 06:30N 48°23' W 004°30'0 0.0
2017-Sep-10 06:00N 48°23' W 004°30'0 0.0
2017-Sep-10 05:30N 48°23' W 004°30'0 0.0
2017-Sep-10 05:00N 48°23' W 004°30'0 0.0
2017-Sep-10 04:30N 48°23' W 004°30'0 0.0
2017-Sep-10 04:00N 48°23' W 004°30'0 0.0
2017-Sep-10 03:30N 48°23' W 004°30'0 0.0
2017-Sep-10 03:00N 48°23' W 004°30'0 0.0
2017-Sep-10 02:30N 48°23' W 004°30'0 0.0
2017-Sep-10 02:00N 48°23' W 004°30'0 0.0
2017-Sep-10 01:30N 48°23' W 004°30'0 0.0
2017-Sep-10 01:00N 48°23' W 004°30'  

Dump ship's entire track history